Colorado Springs, CO (80941)

4:24 AM MDT on September 17, 2014 (GMT -0600)
Carefree Circle S & Windward Circle Village 7 | Change Station
CLOSE
Current Station
Personal Weather Station
Location: Colorado Springs, CO
Elevation: 6509 ft
Nearby Weather Stations

Elev 6509 ft 38.88 °N, 104.74 °W | Updated 12 seconds ago

Clear
Clear
50.3 °F
Feels Like 50.3 °F
N
0.0
Wind Variable Wind from East
Gusts 0.0 mph

Today
High -- | Low -- °F
--% Chance of Precip.
Yesterday
High -- | Low -- °F
Precip. -- in
6:42 AM 7:03 PM
Last Quarter, 37% visible
Pressure 29.90 in
Visibility 10.0 miles
Clouds Clear
Dew Point 40 °F
Humidity 69%
Rainfall 0.00 in
Snow Depth 0 in , 0 in , 0 in
UV 0.0 out of 12
Pollen 5.80 out of 12
Ozone Good
PM2.5 Good
Flu Activity Not available.
METAR KCOS 170954Z 01007KT 10SM CLR 13/03 A3016 RMK AO2 SLP123 T01330033

More Conditions Fewer Conditions

Pressure 29.90 in
Visibility 10.0 miles
Clouds Clear
Dew Point 40 °F
Humidity 69%
Rainfall 0.00 in
Snow Depth 0 in , 0 in , 0 in
UV 0.0 out of 12
Pollen 5.80 out of 12
Ozone Good
PM2.5 Good
Flu Activity Not available.
METAR KCOS 170954Z 01007KT 10SM CLR 13/03 A3016 RMK AO2 SLP123 T01330033

More Conditions Fewer Conditions

10-Day Weather Forecast

Almanac

Astronomy

Sep. 17, 2014 Rise Set
Actual Time 6:42 AM MDT 7:03 PM MDT
Civil Twilight 6:15 AM MDT 7:30 PM MDT
Nautical Twilight 5:44 AM MDT 8:01 PM MDT
Astronomical Twilight 5:12 AM MDT 8:33 PM MDT
Moon 12:46 AM MDT 3:13 PM MDT
Length of Visible Light 13h 15m
Length of Day
12h 21m
Tomorrow will be 2m 30s shorter.
Last Quarter, 37% of the Moon is Illuminated
Today
Last Quarter
Sep 24
New
Oct 1
First Quarter
Oct 8
Full
Oct 15
Last Quarter

Today's Extremes

State Highs State Lows

Community

WunderPhotos

Upload Photos

1,753,993 photos uploaded!

Nearby

Air Quality

  Air Quality AQ Index Pollutant
Yesterday Good
OZONE
Yesterday Good
PM2.5
Current Good
OZONE
Current Good
PM2.5
Tuesday Good
PM2.5
Tuesday Good
OZONE
Wednesday Good
PM2.5
Wednesday Good
OZONE

Snow Depth

Station Depth Elevation
Lynx Pass 0 in 8880 ft
Cascade #2 0 in 8920 ft
Lost Dog 0 in 9320 ft
Michigan Creek 0 in 10600 ft
Cochetopa Pass 0 in 10020 ft

Earthquake Activity

City Distance Mag. Time & Date
No recent earthquake activity has been reported nearby.
Minimum magnitude displayed is 2.5.

Coastal Water Temperatures

Place Temperature
No Stations Reporting

Nearby Weather Stations